Airfield :
LOGIN :

Register | Disclaimer

   EN    FR    IT 

 










Legend :    VFR   Marginal VFR   IFR   Intensive IFR   Very Intensive IFR
Visi :
Ceiling :
>= 8 km
>= 3000ft
5 to 8 km
1000 to 3000 ft
1500m to 5 km
500 to 1000 ft
800 to 1500m
200 to 500 ft
< 800m
< 200 ft
Symbols :   Thunderstorms  Fog  Heavy snow  Heavy precipitations  Wind > 20 kt
SIGMETs :     Misc.  Thunderstorms  Icing  Turbulence  Mountain Waves  Volcanic Ashes






- Airport Elevation : 512 ft
- IATA code : URO


LFOP - Rouen Vallée de Seine

CURRENT METAR :
  • 220900Z AUTO 17006KT 9999 OVC005 13/12 Q1012 TEMPO 2000 TSRA BKN013 BKN020CB

EXPIRED METARs :
  • 220830Z AUTO 18005KT 9999 OVC006 13/12 Q1011 TEMPO 2000 TSRA BKN013 BKN020CB
  • 220800Z AUTO 16004KT 9999 BKN009/// OVC021/// ///TCU 13/12 Q1011 TEMPO 4000 SHRA BKN013 BKN030TCU
  • 220730Z AUTO 14003KT 9999 SCT011 OVC020 13/12 Q1011 TEMPO 4000 SHRA BKN013 BKN030TCU
  • 220700Z AUTO 14003KT 9999 OVC012 12/12 Q1010 TEMPO 4000 SHRA BKN013 BKN030TCU

TAF TAF LFOP
Valid from the 22 at 06:00 until the 23 at 06:00 UTC


220500Z 2206/2306 19007KT 9999 BKN017
BECMG 2206/2208 OVC004
BECMG 2208/2210 BKN007
BECMG 2210/2213 BKN017
TEMPO 2207/2217 4000 SHRA BKN013 BKN030TCU
PROB30
TEMPO 2210/2216 2000 TSRA BKN013 BKN020CB
BECMG 2221/2224 2000 BR
BECMG 2300/2302 0300 FG VV///
ATIS : +33 2 35 80 80 34
Met : +33 2 32 86 52 80



MET'MAP, your aeronautical weather chart ! - Copyright ORBIFLY December 2007 - Disclaimer

ORBIFLY MET'MAP TEAM :

Programming & Development : Alexandra Zaïnal
Concept & original design : Baudouin d'Aumeries
Assistance for programming : Marc-Olivier Méhu
Technical & hardware support : Manuel Goepfert

Contact : metmap@orbifly.com




SOURCES & CREDITS :

   NOAA